createdAt,value
2023-05-01T00:04:05.546Z,6.53
2023-05-01T00:09:07.455Z,23.13
2023-05-01T00:14:09.220Z,8.77
2023-05-01T00:19:12.596Z,16.67
2023-05-01T00:24:16.562Z,12.27
2023-05-01T00:29:18.682Z,8.75
2023-05-01T00:34:23.603Z,9.27
2023-05-01T00:39:25.483Z,11.55
2023-05-01T00:44:27.190Z,10.30
2023-05-01T00:49:29.387Z,12.65
2023-05-01T00:54:31.279Z,13.32
2023-05-01T00:59:33.065Z,11.05
2023-05-01T01:04:35.101Z,11.85
2023-05-01T01:10:19.005Z,11.35
2023-05-01T01:20:32.198Z,13.77
2023-05-01T01:26:00.261Z,15.25
2023-05-01T01:31:26.696Z,14.25
2023-05-01T01:36:56.469Z,14.38
2023-05-01T01:42:00.619Z,11.15
2023-05-01T01:47:06.922Z,11.50
2023-05-01T01:52:14.140Z,10.27
2023-05-01T01:57:18.584Z,9.95
2023-05-01T02:02:22.304Z,10.07
2023-05-01T02:07:26.816Z,9.88
2023-05-01T02:12:29.600Z,8.63
2023-05-01T02:17:32.272Z,12.93
2023-05-01T02:22:34.281Z,7.88
2023-05-01T02:27:39.563Z,10.13
2023-05-01T02:32:41.417Z,10.20
2023-05-01T02:37:44.285Z,10.70
2023-05-01T02:42:48.035Z,12.48
2023-05-01T02:47:52.943Z,9.82
2023-05-01T02:52:55.345Z,14.57
2023-05-01T02:58:00.438Z,11.93
2023-05-01T03:03:02.216Z,15.27
2023-05-01T03:08:04.429Z,11.32
2023-05-01T03:13:06.559Z,10.80
2023-05-01T03:18:09.815Z,12.30
2023-05-01T03:23:11.730Z,14.05
2023-05-01T03:28:14.270Z,11.00
2023-05-01T03:33:16.304Z,9.00
2023-05-01T03:38:18.480Z,10.40
2023-05-01T03:43:20.157Z,7.47
2023-05-01T03:48:22.342Z,9.13
2023-05-01T03:53:24.549Z,9.82
2023-05-01T03:58:26.274Z,16.00
2023-05-01T04:03:28.941Z,10.77
2023-05-01T04:08:31.497Z,12.23
2023-05-01T04:13:33.270Z,10.10
2023-05-01T04:18:34.965Z,9.98
2023-05-01T04:23:36.695Z,11.88
2023-05-01T04:28:38.646Z,11.27
2023-05-01T04:33:40.660Z,14.70
2023-05-01T04:38:42.478Z,16.05
2023-05-01T04:43:44.691Z,18.60
2023-05-01T04:48:46.483Z,23.08
2023-05-01T04:53:48.426Z,11.98
2023-05-01T04:58:50.249Z,10.77
2023-05-01T05:03:52.311Z,12.23
2023-05-01T05:08:54.438Z,16.38
2023-05-01T05:13:56.438Z,10.82
2023-05-01T05:18:58.448Z,16.35
2023-05-01T05:24:00.698Z,12.43
2023-05-01T05:29:02.402Z,13.27
2023-05-01T05:34:04.290Z,14.40
2023-05-01T05:39:06.075Z,14.07
2023-05-01T05:44:08.769Z,11.15
2023-05-01T05:49:10.577Z,11.63
2023-05-01T05:54:12.275Z,12.80
2023-05-01T05:59:16.616Z,14.93
2023-05-01T06:04:19.146Z,12.15
2023-05-01T06:09:21.528Z,10.80
2023-05-01T06:14:23.720Z,11.93
2023-05-01T06:19:25.762Z,13.70
2023-05-01T06:24:28.518Z,10.85
2023-05-01T06:29:31.240Z,10.70
2023-05-01T06:34:32.896Z,12.65
2023-05-01T06:39:34.845Z,12.68
2023-05-01T06:44:36.901Z,8.95
2023-05-01T06:49:38.606Z,9.68
2023-05-01T06:54:40.280Z,8.85
2023-05-01T06:59:42.373Z,4.80
2023-05-01T07:04:44.713Z,6.07
2023-05-01T07:09:46.440Z,9.10
2023-05-01T07:14:48.290Z,5.95
2023-05-01T07:19:50.607Z,8.98
2023-05-01T07:24:52.696Z,6.95
2023-05-01T07:29:57.968Z,5.75
2023-05-01T07:35:00.095Z,10.30
2023-05-01T07:40:02.397Z,7.38
2023-05-01T07:45:04.481Z,6.78
2023-05-01T07:50:11.289Z,6.05
2023-05-01T07:55:13.388Z,7.03
2023-05-01T08:00:15.635Z,5.53
2023-05-01T08:05:17.507Z,5.50
2023-05-01T08:10:19.382Z,6.65
2023-05-01T08:15:21.683Z,9.10
2023-05-01T08:20:23.551Z,8.77
2023-05-01T08:25:25.419Z,6.90
2023-05-01T08:30:27.264Z,6.70
2023-05-01T08:35:29.397Z,6.95
2023-05-01T08:40:35.773Z,8.30
2023-05-01T08:45:38.373Z,7.13
2023-05-01T08:50:44.317Z,6.72
2023-05-01T08:55:47.900Z,10.05
2023-05-01T09:00:49.862Z,9.35
2023-05-01T09:05:52.969Z,9.35
2023-05-01T09:10:56.772Z,7.78
2023-05-01T09:16:00.854Z,9.13
2023-05-01T09:21:03.668Z,6.72
2023-05-01T09:26:06.029Z,11.90
2023-05-01T09:31:28.989Z,8.10
2023-05-01T09:36:32.845Z,14.25
2023-05-01T09:41:34.635Z,9.23
2023-05-01T09:46:42.759Z,9.10
2023-05-01T09:51:44.751Z,7.35
2023-05-01T09:56:50.062Z,8.82
2023-05-01T10:01:52.854Z,8.57
2023-05-01T10:06:55.082Z,8.40
2023-05-01T10:11:59.137Z,6.65
2023-05-01T10:17:02.659Z,9.85
2023-05-01T10:22:05.184Z,7.45
2023-05-01T10:27:10.742Z,6.93
2023-05-01T10:32:15.272Z,5.28
2023-05-01T10:37:56.215Z,5.40
2023-05-01T10:43:30.650Z,8.70
2023-05-01T10:48:42.594Z,8.45
2023-05-01T10:53:52.216Z,6.38
2023-05-01T10:59:04.929Z,10.75
2023-05-01T11:04:23.160Z,5.07
2023-05-01T11:09:40.380Z,8.10
2023-05-01T11:15:09.140Z,6.07
2023-05-01T11:20:13.892Z,7.03
2023-05-01T11:25:34.250Z,8.15
2023-05-01T11:30:40.741Z,4.90
2023-05-01T11:35:50.446Z,6.45
2023-05-01T11:40:59.431Z,9.45
2023-05-01T11:46:04.775Z,8.02
2023-05-01T11:51:13.337Z,19.98
2023-05-01T11:56:26.393Z,5.65
2023-05-01T12:01:36.072Z,5.45
2023-05-01T12:06:47.890Z,5.40
2023-05-01T12:11:52.690Z,6.78
2023-05-01T12:16:55.804Z,6.53
2023-05-01T12:22:16.386Z,6.72
2023-05-01T12:27:19.333Z,6.45
2023-05-01T12:32:32.433Z,8.82
2023-05-01T12:37:34.876Z,5.05
2023-05-01T12:42:36.837Z,7.90
2023-05-01T12:47:39.270Z,7.30
2023-05-01T12:52:41.551Z,5.82
2023-05-01T12:57:54.206Z,9.95
2023-05-01T13:03:04.287Z,8.18
2023-05-01T13:08:06.196Z,5.83
2023-05-01T13:13:07.881Z,5.22
2023-05-01T13:18:09.680Z,11.90
2023-05-01T13:23:15.100Z,5.82
2023-05-01T13:28:20.838Z,5.55
2023-05-01T13:33:23.360Z,8.13
2023-05-01T13:38:25.869Z,7.10
2023-05-01T13:43:27.856Z,6.65
2023-05-01T13:48:31.076Z,4.90
2023-05-01T13:53:32.945Z,7.88
2023-05-01T13:58:35.325Z,7.18
2023-05-01T14:03:41.621Z,5.47
2023-05-01T14:08:44.525Z,5.82
2023-05-01T14:13:47.786Z,8.80
2023-05-01T14:18:49.568Z,7.82
2023-05-01T14:23:55.584Z,26.92
2023-05-01T14:28:57.430Z,7.55
2023-05-01T14:34:01.847Z,7.93
2023-05-01T14:39:04.496Z,7.30
2023-05-01T14:44:06.973Z,8.13
2023-05-01T14:49:11.372Z,7.88
2023-05-01T14:54:14.313Z,12.15
2023-05-01T14:59:16.381Z,14.77
2023-05-01T15:04:18.522Z,6.00
2023-05-01T15:09:20.436Z,7.80
2023-05-01T15:14:22.194Z,9.65
2023-05-01T15:19:24.100Z,8.27
2023-05-01T15:24:26.218Z,8.93
2023-05-01T15:29:28.103Z,6.88
2023-05-01T15:34:30.380Z,10.90
2023-05-01T15:39:33.191Z,5.13
2023-05-01T15:44:35.086Z,10.30
2023-05-01T15:49:36.918Z,7.82
2023-05-01T15:54:39.141Z,5.43
2023-05-01T15:59:41.340Z,9.60
2023-05-01T16:04:47.779Z,9.98
2023-05-01T16:09:50.392Z,5.47
2023-05-01T16:14:52.568Z,6.47
2023-05-01T16:19:55.346Z,5.90
2023-05-01T16:24:59.602Z,6.38
2023-05-01T16:30:06.060Z,7.18
2023-05-01T16:35:15.038Z,6.15
2023-05-01T16:40:18.359Z,5.32
2023-05-01T16:45:20.850Z,4.65
2023-05-01T16:50:22.875Z,5.25
2023-05-01T16:55:26.052Z,4.30
2023-05-01T17:00:29.336Z,6.10
2023-05-01T17:05:31.531Z,6.03
2023-05-01T17:10:33.260Z,12.82
2023-05-01T17:15:35.032Z,12.35
2023-05-01T17:20:36.973Z,7.57
2023-05-01T17:25:38.870Z,5.45
2023-05-01T17:30:41.062Z,7.97
2023-05-01T17:35:42.852Z,3.20
2023-05-01T17:40:44.962Z,5.15
2023-05-01T17:45:48.012Z,3.40
2023-05-01T17:50:49.870Z,3.97
2023-05-01T17:55:52.346Z,5.72
2023-05-01T18:00:55.481Z,4.53
2023-05-01T18:05:59.767Z,8.52
2023-05-01T18:11:02.032Z,6.03
2023-05-01T18:16:04.766Z,4.80
2023-05-01T18:21:06.558Z,6.53
2023-05-01T18:26:08.273Z,20.77
2023-05-01T18:31:10.507Z,10.88
2023-05-01T18:36:12.423Z,8.38
2023-05-01T18:41:14.564Z,11.32
2023-05-01T18:46:16.406Z,5.20
2023-05-01T18:51:18.252Z,7.13
2023-05-01T18:56:20.126Z,6.70
2023-05-01T19:01:23.604Z,8.20
2023-05-01T19:06:26.377Z,7.78
2023-05-01T19:11:31.733Z,6.15
2023-05-01T19:16:33.634Z,13.50
2023-05-01T19:21:35.852Z,8.70
2023-05-01T19:26:39.132Z,10.52
2023-05-01T19:31:40.938Z,9.85
2023-05-01T19:36:42.972Z,10.18
2023-05-01T19:41:44.791Z,11.10
2023-05-01T19:46:46.566Z,13.23
2023-05-01T19:51:48.896Z,10.82
2023-05-01T19:56:51.777Z,9.60
2023-05-01T20:01:53.862Z,8.75
2023-05-01T20:06:56.216Z,9.43
2023-05-01T20:11:58.469Z,9.07
2023-05-01T20:17:00.460Z,8.57
2023-05-01T20:22:02.950Z,6.63
2023-05-01T20:27:04.873Z,11.95
2023-05-01T20:32:06.763Z,14.82
2023-05-01T20:37:08.736Z,11.43
2023-05-01T20:42:10.855Z,7.20
2023-05-01T20:47:13.924Z,14.70
2023-05-01T20:52:16.186Z,12.05
2023-05-01T20:57:18.031Z,26.45
2023-05-01T21:02:19.784Z,45.00
2023-05-01T21:07:21.524Z,33.47
2023-05-01T21:12:23.305Z,34.88
2023-05-01T21:17:26.305Z,39.85
2023-05-01T21:22:28.391Z,30.15
2023-05-01T21:27:30.528Z,21.38
2023-05-01T21:32:40.350Z,18.58
2023-05-01T21:37:43.829Z,22.02
2023-05-01T21:42:46.186Z,13.98
2023-05-01T21:47:50.841Z,15.07
2023-05-01T21:52:52.845Z,17.15
2023-05-01T21:57:54.899Z,12.15
2023-05-01T22:02:57.141Z,10.85
2023-05-01T22:08:00.658Z,13.63
2023-05-01T22:13:06.365Z,7.30
2023-05-01T22:18:08.412Z,10.85
2023-05-01T22:23:10.225Z,10.55
2023-05-01T22:28:11.987Z,9.02
2023-05-01T22:33:13.783Z,12.38
2023-05-01T22:38:15.644Z,12.30
2023-05-01T22:43:17.438Z,9.80
2023-05-01T22:48:19.386Z,11.48
2023-05-01T22:53:21.259Z,15.90
2023-05-01T22:58:23.078Z,10.10
2023-05-01T23:03:24.869Z,15.15
2023-05-01T23:08:27.026Z,11.60
2023-05-01T23:13:31.449Z,9.55
2023-05-01T23:18:33.373Z,11.10
2023-05-01T23:23:36.014Z,9.73
2023-05-01T23:28:44.233Z,8.98
2023-05-01T23:33:45.986Z,8.20
2023-05-01T23:38:48.311Z,9.60
2023-05-01T23:43:50.139Z,8.13
2023-05-01T23:48:52.415Z,8.90
2023-05-01T23:53:54.131Z,13.23
2023-05-01T23:58:56.022Z,13.10
